Port Au Choix, Canada
Current Conditions -  °F | °C
As of 11:00 AM on Tuesday 27 Jan 2015 (Local Time) from CWDH Reporting Station
Clear Clear  
Wind Chill: -23°   Ceiling: Unl
Heat Index: -15°   Visibility: 9mi
Dew Point: -22°   Wind: 8mph
Humidity: 59%   Direction: 70°ENE
Pressure: 30.5"   Gusts: NA
Location:  50.72°N, 57.37°W
Report Text: CWDH 271400Z AUTO 07007KT 9SM NSC M15/M22 A3050 RMK SLP331 T11531216 70020 WSI/SWOB
Loading
Personal Weather Stations






























Interactive Weather Map New forecast layout! Learn more

10-Day Weather Forecast

Advertisements
Track Severe Weather on mobile